sensor_id;sensor_type;location;lat;lon;timestamp;P1;durP1;ratioP1;P2;durP2;ratioP2
2658;SDS011;1339;53.304;10.406;2022-11-23T00:01:20;33.55;;;18.85;;
2658;SDS011;1339;53.304;10.406;2022-11-23T00:03:48;24.67;;;17.08;;
2658;SDS011;1339;53.304;10.406;2022-11-23T00:06:15;31.80;;;19.10;;
2658;SDS011;1339;53.304;10.406;2022-11-23T00:08:43;31.33;;;18.45;;
2658;SDS011;1339;53.304;10.406;2022-11-23T00:11:10;24.80;;;19.77;;
2658;SDS011;1339;53.304;10.406;2022-11-23T00:13:37;29.90;;;21.92;;
2658;SDS011;1339;53.304;10.406;2022-11-23T00:16:05;23.23;;;16.33;;
2658;SDS011;1339;53.304;10.406;2022-11-23T00:18:34;32.25;;;19.58;;
2658;SDS011;1339;53.304;10.406;2022-11-23T00:21:04;25.65;;;16.63;;
2658;SDS011;1339;53.304;10.406;2022-11-23T00:23:31;26.25;;;18.50;;
2658;SDS011;1339;53.304;10.406;2022-11-23T00:25:58;26.75;;;16.75;;
2658;SDS011;1339;53.304;10.406;2022-11-23T00:28:25;31.55;;;20.35;;
2658;SDS011;1339;53.304;10.406;2022-11-23T00:30:52;30.05;;;18.67;;
2658;SDS011;1339;53.304;10.406;2022-11-23T00:33:19;27.08;;;19.35;;
2658;SDS011;1339;53.304;10.406;2022-11-23T00:35:57;32.55;;;18.25;;
2658;SDS011;1339;53.304;10.406;2022-11-23T00:38:24;30.02;;;17.85;;
2658;SDS011;1339;53.304;10.406;2022-11-23T00:40:56;23.73;;;16.90;;
2658;SDS011;1339;53.304;10.406;2022-11-23T00:43:23;30.15;;;18.45;;
2658;SDS011;1339;53.304;10.406;2022-11-23T00:45:50;23.67;;;17.65;;
2658;SDS011;1339;53.304;10.406;2022-11-23T00:48:17;25.73;;;18.95;;
2658;SDS011;1339;53.304;10.406;2022-11-23T00:50:44;27.15;;;18.23;;
2658;SDS011;1339;53.304;10.406;2022-11-23T00:53:12;25.10;;;16.70;;
2658;SDS011;1339;53.304;10.406;2022-11-23T00:55:39;26.65;;;16.80;;
2658;SDS011;1339;53.304;10.406;2022-11-23T00:58:06;22.90;;;17.23;;
2658;SDS011;1339;53.304;10.406;2022-11-23T01:00:33;24.75;;;16.65;;
2658;SDS011;1339;53.304;10.406;2022-11-23T01:03:00;26.00;;;17.17;;
2658;SDS011;1339;53.304;10.406;2022-11-23T01:05:27;24.85;;;15.52;;
2658;SDS011;1339;53.304;10.406;2022-11-23T01:07:54;24.83;;;17.77;;
2658;SDS011;1339;53.304;10.406;2022-11-23T01:10:22;25.58;;;18.58;;
2658;SDS011;1339;53.304;10.406;2022-11-23T01:12:49;22.73;;;17.08;;
2658;SDS011;1339;53.304;10.406;2022-11-23T01:15:16;28.67;;;17.45;;
2658;SDS011;1339;53.304;10.406;2022-11-23T01:17:43;25.75;;;16.95;;
2658;SDS011;1339;53.304;10.406;2022-11-23T01:20:10;25.67;;;15.05;;
2658;SDS011;1339;53.304;10.406;2022-11-23T01:22:38;23.90;;;16.30;;
2658;SDS011;1339;53.304;10.406;2022-11-23T01:25:06;21.08;;;16.83;;
2658;SDS011;1339;53.304;10.406;2022-11-23T01:27:34;22.00;;;16.25;;
2658;SDS011;1339;53.304;10.406;2022-11-23T01:30:01;24.45;;;16.58;;
2658;SDS011;1339;53.304;10.406;2022-11-23T01:32:28;23.88;;;16.45;;
2658;SDS011;1339;53.304;10.406;2022-11-23T01:34:55;22.30;;;16.10;;
2658;SDS011;1339;53.304;10.406;2022-11-23T01:37:22;22.73;;;16.50;;
2658;SDS011;1339;53.304;10.406;2022-11-23T01:39:49;22.55;;;16.30;;
2658;SDS011;1339;53.304;10.406;2022-11-23T01:42:16;21.60;;;15.98;;
2658;SDS011;1339;53.304;10.406;2022-11-23T01:44:45;21.38;;;15.52;;
2658;SDS011;1339;53.304;10.406;2022-11-23T01:47:12;18.63;;;14.40;;
2658;SDS011;1339;53.304;10.406;2022-11-23T01:49:39;24.52;;;15.48;;
2658;SDS011;1339;53.304;10.406;2022-11-23T01:52:09;21.08;;;15.10;;
2658;SDS011;1339;53.304;10.406;2022-11-23T01:54:38;21.42;;;17.40;;
2658;SDS011;1339;53.304;10.406;2022-11-23T01:57:07;22.17;;;15.52;;
2658;SDS011;1339;53.304;10.406;2022-11-23T01:59:35;22.13;;;14.55;;
2658;SDS011;1339;53.304;10.406;2022-11-23T02:02:04;18.38;;;14.68;;
2658;SDS011;1339;53.304;10.406;2022-11-23T02:04:32;19.77;;;15.35;;
2658;SDS011;1339;53.304;10.406;2022-11-23T02:07:00;21.60;;;15.50;;
2658;SDS011;1339;53.304;10.406;2022-11-23T02:09:28;20.98;;;14.77;;
2658;SDS011;1339;53.304;10.406;2022-11-23T02:11:56;18.30;;;14.15;;
2658;SDS011;1339;53.304;10.406;2022-11-23T02:14:23;21.40;;;15.35;;
2658;SDS011;1339;53.304;10.406;2022-11-23T02:16:50;20.38;;;15.45;;
2658;SDS011;1339;53.304;10.406;2022-11-23T02:19:20;23.25;;;16.83;;
2658;SDS011;1339;53.304;10.406;2022-11-23T02:21:49;20.67;;;14.55;;
2658;SDS011;1339;53.304;10.406;2022-11-23T02:24:19;23.73;;;16.45;;
2658;SDS011;1339;53.304;10.406;2022-11-23T02:26:50;23.48;;;14.82;;
2658;SDS011;1339;53.304;10.406;2022-11-23T02:29:19;20.92;;;15.23;;
2658;SDS011;1339;53.304;10.406;2022-11-23T02:31:47;20.48;;;14.00;;
2658;SDS011;1339;53.304;10.406;2022-11-23T02:34:15;18.33;;;13.95;;
2658;SDS011;1339;53.304;10.406;2022-11-23T02:36:42;16.30;;;14.23;;
2658;SDS011;1339;53.304;10.406;2022-11-23T02:39:11;21.55;;;15.00;;
2658;SDS011;1339;53.304;10.406;2022-11-23T02:41:39;22.95;;;15.98;;
2658;SDS011;1339;53.304;10.406;2022-11-23T02:44:11;19.00;;;14.20;;
2658;SDS011;1339;53.304;10.406;2022-11-23T02:46:41;18.83;;;14.40;;
2658;SDS011;1339;53.304;10.406;2022-11-23T02:49:08;23.70;;;15.35;;
2658;SDS011;1339;53.304;10.406;2022-11-23T02:51:35;24.80;;;15.63;;
2658;SDS011;1339;53.304;10.406;2022-11-23T02:54:02;18.17;;;13.80;;
2658;SDS011;1339;53.304;10.406;2022-11-23T02:56:29;24.40;;;14.90;;
2658;SDS011;1339;53.304;10.406;2022-11-23T02:58:56;17.80;;;14.40;;
2658;SDS011;1339;53.304;10.406;2022-11-23T03:01:25;21.67;;;13.57;;
2658;SDS011;1339;53.304;10.406;2022-11-23T03:03:52;23.23;;;14.40;;
2658;SDS011;1339;53.304;10.406;2022-11-23T03:06:19;20.50;;;14.88;;
2658;SDS011;1339;53.304;10.406;2022-11-23T03:08:47;18.60;;;14.60;;
2658;SDS011;1339;53.304;10.406;2022-11-23T03:11:14;15.93;;;12.75;;
2658;SDS011;1339;53.304;10.406;2022-11-23T03:13:41;21.45;;;14.52;;
2658;SDS011;1339;53.304;10.406;2022-11-23T03:16:09;18.58;;;14.02;;
2658;SDS011;1339;53.304;10.406;2022-11-23T03:18:37;18.10;;;13.32;;
2658;SDS011;1339;53.304;10.406;2022-11-23T03:21:05;19.15;;;13.63;;
2658;SDS011;1339;53.304;10.406;2022-11-23T03:23:33;18.10;;;12.73;;
2658;SDS011;1339;53.304;10.406;2022-11-23T03:26:00;19.45;;;13.48;;
2658;SDS011;1339;53.304;10.406;2022-11-23T03:28:27;19.70;;;13.48;;
2658;SDS011;1339;53.304;10.406;2022-11-23T03:30:54;17.08;;;12.07;;
2658;SDS011;1339;53.304;10.406;2022-11-23T03:33:21;18.52;;;13.55;;
2658;SDS011;1339;53.304;10.406;2022-11-23T03:35:50;18.73;;;13.52;;
2658;SDS011;1339;53.304;10.406;2022-11-23T03:38:17;18.05;;;13.10;;
2658;SDS011;1339;53.304;10.406;2022-11-23T03:40:44;17.60;;;12.60;;
2658;SDS011;1339;53.304;10.406;2022-11-23T03:43:11;13.48;;;12.00;;
2658;SDS011;1339;53.304;10.406;2022-11-23T03:45:38;14.00;;;11.30;;
2658;SDS011;1339;53.304;10.406;2022-11-23T03:48:05;18.27;;;14.60;;
2658;SDS011;1339;53.304;10.406;2022-11-23T03:50:32;21.00;;;14.52;;
2658;SDS011;1339;53.304;10.406;2022-11-23T03:53:01;19.00;;;12.60;;
2658;SDS011;1339;53.304;10.406;2022-11-23T03:55:28;22.98;;;13.57;;
2658;SDS011;1339;53.304;10.406;2022-11-23T03:57:55;20.70;;;13.25;;
2658;SDS011;1339;53.304;10.406;2022-11-23T04:00:23;17.67;;;13.27;;
2658;SDS011;1339;53.304;10.406;2022-11-23T04:02:50;18.33;;;12.57;;
2658;SDS011;1339;53.304;10.406;2022-11-23T04:05:17;18.83;;;11.88;;
2658;SDS011;1339;53.304;10.406;2022-11-23T04:07:45;20.40;;;13.43;;
2658;SDS011;1339;53.304;10.406;2022-11-23T04:10:14;14.57;;;11.77;;
2658;SDS011;1339;53.304;10.406;2022-11-23T04:12:41;16.75;;;13.35;;
2658;SDS011;1339;53.304;10.406;2022-11-23T04:15:08;17.02;;;13.18;;
2658;SDS011;1339;53.304;10.406;2022-11-23T04:17:35;15.50;;;12.27;;
2658;SDS011;1339;53.304;10.406;2022-11-23T04:20:03;14.40;;;12.38;;
2658;SDS011;1339;53.304;10.406;2022-11-23T04:22:30;15.30;;;12.35;;
2658;SDS011;1339;53.304;10.406;2022-11-23T04:24:57;14.23;;;11.00;;
2658;SDS011;1339;53.304;10.406;2022-11-23T04:27:25;17.13;;;12.25;;
2658;SDS011;1339;53.304;10.406;2022-11-23T04:29:52;15.85;;;12.40;;
2658;SDS011;1339;53.304;10.406;2022-11-23T04:32:19;15.15;;;13.20;;
2658;SDS011;1339;53.304;10.406;2022-11-23T04:34:46;18.50;;;12.82;;
2658;SDS011;1339;53.304;10.406;2022-11-23T04:37:13;15.65;;;11.70;;
2658;SDS011;1339;53.304;10.406;2022-11-23T04:39:41;14.45;;;12.77;;
2658;SDS011;1339;53.304;10.406;2022-11-23T04:42:08;19.55;;;13.40;;
2658;SDS011;1339;53.304;10.406;2022-11-23T04:44:36;15.80;;;12.10;;
2658;SDS011;1339;53.304;10.406;2022-11-23T04:47:03;16.42;;;12.32;;
2658;SDS011;1339;53.304;10.406;2022-11-23T04:49:30;13.70;;;11.80;;
2658;SDS011;1339;53.304;10.406;2022-11-23T04:51:57;14.32;;;11.98;;
2658;SDS011;1339;53.304;10.406;2022-11-23T04:54:24;16.48;;;11.75;;
2658;SDS011;1339;53.304;10.406;2022-11-23T04:56:51;17.05;;;11.98;;
2658;SDS011;1339;53.304;10.406;2022-11-23T04:59:19;15.65;;;11.85;;
2658;SDS011;1339;53.304;10.406;2022-11-23T05:01:48;13.45;;;12.05;;
2658;SDS011;1339;53.304;10.406;2022-11-23T05:04:16;14.95;;;11.82;;
2658;SDS011;1339;53.304;10.406;2022-11-23T05:06:43;11.48;;;10.27;;
2658;SDS011;1339;53.304;10.406;2022-11-23T05:09:10;16.33;;;11.88;;
2658;SDS011;1339;53.304;10.406;2022-11-23T05:11:37;16.50;;;11.80;;
2658;SDS011;1339;53.304;10.406;2022-11-23T05:14:04;15.35;;;11.60;;
2658;SDS011;1339;53.304;10.406;2022-11-23T05:16:31;14.93;;;11.30;;
2658;SDS011;1339;53.304;10.406;2022-11-23T05:18:59;13.07;;;11.68;;
2658;SDS011;1339;53.304;10.406;2022-11-23T05:21:26;15.45;;;11.80;;
2658;SDS011;1339;53.304;10.406;2022-11-23T05:23:53;16.92;;;11.05;;
2658;SDS011;1339;53.304;10.406;2022-11-23T05:26:20;19.58;;;11.60;;
2658;SDS011;1339;53.304;10.406;2022-11-23T05:28:47;16.55;;;11.90;;
2658;SDS011;1339;53.304;10.406;2022-11-23T05:31:14;19.20;;;12.23;;
2658;SDS011;1339;53.304;10.406;2022-11-23T05:33:42;13.63;;;12.20;;
2658;SDS011;1339;53.304;10.406;2022-11-23T05:36:10;15.05;;;10.52;;
2658;SDS011;1339;53.304;10.406;2022-11-23T05:38:38;13.75;;;10.65;;
2658;SDS011;1339;53.304;10.406;2022-11-23T05:41:05;16.70;;;11.25;;
2658;SDS011;1339;53.304;10.406;2022-11-23T05:43:32;18.65;;;12.25;;
2658;SDS011;1339;53.304;10.406;2022-11-23T05:45:59;15.55;;;11.98;;
2658;SDS011;1339;53.304;10.406;2022-11-23T05:48:26;14.60;;;11.88;;
2658;SDS011;1339;53.304;10.406;2022-11-23T05:50:53;15.65;;;13.20;;
2658;SDS011;1339;53.304;10.406;2022-11-23T05:53:22;15.93;;;10.07;;
2658;SDS011;1339;53.304;10.406;2022-11-23T05:55:49;15.00;;;11.88;;
2658;SDS011;1339;53.304;10.406;2022-11-23T05:58:16;16.02;;;10.80;;
2658;SDS011;1339;53.304;10.406;2022-11-23T06:00:43;11.50;;;9.43;;
2658;SDS011;1339;53.304;10.406;2022-11-23T06:03:10;20.33;;;11.18;;
2658;SDS011;1339;53.304;10.406;2022-11-23T06:05:37;19.58;;;11.40;;
2658;SDS011;1339;53.304;10.406;2022-11-23T06:08:04;13.55;;;9.30;;
2658;SDS011;1339;53.304;10.406;2022-11-23T06:10:32;11.98;;;10.70;;
2658;SDS011;1339;53.304;10.406;2022-11-23T06:13:01;14.60;;;9.88;;
2658;SDS011;1339;53.304;10.406;2022-11-23T06:15:28;14.68;;;9.75;;
2658;SDS011;1339;53.304;10.406;2022-11-23T06:17:57;14.70;;;11.38;;
2658;SDS011;1339;53.304;10.406;2022-11-23T06:20:25;14.25;;;11.70;;
2658;SDS011;1339;53.304;10.406;2022-11-23T06:22:52;15.38;;;12.40;;
2658;SDS011;1339;53.304;10.406;2022-11-23T06:25:19;14.50;;;12.82;;
2658;SDS011;1339;53.304;10.406;2022-11-23T06:27:52;21.33;;;16.33;;
2658;SDS011;1339;53.304;10.406;2022-11-23T06:30:19;28.35;;;19.27;;
2658;SDS011;1339;53.304;10.406;2022-11-23T06:32:46;21.00;;;15.85;;
2658;SDS011;1339;53.304;10.406;2022-11-23T06:35:14;28.70;;;20.42;;
2658;SDS011;1339;53.304;10.406;2022-11-23T06:37:41;22.95;;;16.88;;
2658;SDS011;1339;53.304;10.406;2022-11-23T06:40:08;19.80;;;15.40;;
2658;SDS011;1339;53.304;10.406;2022-11-23T06:42:36;21.48;;;16.02;;
2658;SDS011;1339;53.304;10.406;2022-11-23T06:45:05;13.35;;;12.00;;
2658;SDS011;1339;53.304;10.406;2022-11-23T06:47:32;13.88;;;10.65;;
2658;SDS011;1339;53.304;10.406;2022-11-23T06:49:59;12.50;;;10.85;;
2658;SDS011;1339;53.304;10.406;2022-11-23T06:52:26;14.73;;;11.85;;
2658;SDS011;1339;53.304;10.406;2022-11-23T06:54:53;13.93;;;11.60;;
2658;SDS011;1339;53.304;10.406;2022-11-23T06:57:20;13.75;;;11.90;;
2658;SDS011;1339;53.304;10.406;2022-11-23T06:59:47;17.55;;;11.27;;
2658;SDS011;1339;53.304;10.406;2022-11-23T07:02:16;15.23;;;11.10;;
2658;SDS011;1339;53.304;10.406;2022-11-23T07:04:43;17.65;;;11.00;;
2658;SDS011;1339;53.304;10.406;2022-11-23T07:07:10;14.65;;;11.15;;
2658;SDS011;1339;53.304;10.406;2022-11-23T07:09:37;16.77;;;11.18;;
2658;SDS011;1339;53.304;10.406;2022-11-23T07:12:04;12.52;;;10.25;;
2658;SDS011;1339;53.304;10.406;2022-11-23T07:14:31;13.05;;;10.13;;
2658;SDS011;1339;53.304;10.406;2022-11-23T07:16:58;12.07;;;10.30;;
2658;SDS011;1339;53.304;10.406;2022-11-23T07:19:26;12.50;;;10.38;;
2658;SDS011;1339;53.304;10.406;2022-11-23T07:21:54;13.73;;;10.55;;
2658;SDS011;1339;53.304;10.406;2022-11-23T07:24:21;13.77;;;9.45;;
2658;SDS011;1339;53.304;10.406;2022-11-23T07:26:48;12.77;;;10.45;;
2658;SDS011;1339;53.304;10.406;2022-11-23T07:29:15;10.93;;;9.85;;
2658;SDS011;1339;53.304;10.406;2022-11-23T07:31:42;14.02;;;11.05;;
2658;SDS011;1339;53.304;10.406;2022-11-23T07:34:09;20.42;;;11.98;;
2658;SDS011;1339;53.304;10.406;2022-11-23T07:36:38;20.45;;;11.75;;
2658;SDS011;1339;53.304;10.406;2022-11-23T07:39:05;16.15;;;11.60;;
2658;SDS011;1339;53.304;10.406;2022-11-23T07:41:32;11.65;;;10.55;;
2658;SDS011;1339;53.304;10.406;2022-11-23T07:43:59;15.40;;;11.35;;
2658;SDS011;1339;53.304;10.406;2022-11-23T07:46:26;12.60;;;11.27;;
2658;SDS011;1339;53.304;10.406;2022-11-23T07:48:53;15.45;;;11.30;;
2658;SDS011;1339;53.304;10.406;2022-11-23T07:51:25;15.38;;;10.30;;
2658;SDS011;1339;53.304;10.406;2022-11-23T07:53:53;12.05;;;9.52;;
2658;SDS011;1339;53.304;10.406;2022-11-23T07:56:21;13.60;;;12.18;;
2658;SDS011;1339;53.304;10.406;2022-11-23T07:58:48;13.20;;;10.70;;
2658;SDS011;1339;53.304;10.406;2022-11-23T08:01:16;16.00;;;10.65;;
2658;SDS011;1339;53.304;10.406;2022-11-23T08:03:43;13.65;;;11.52;;
2658;SDS011;1339;53.304;10.406;2022-11-23T08:06:10;15.85;;;11.13;;
2658;SDS011;1339;53.304;10.406;2022-11-23T08:08:37;15.52;;;11.05;;
2658;SDS011;1339;53.304;10.406;2022-11-23T08:11:06;13.77;;;10.18;;
2658;SDS011;1339;53.304;10.406;2022-11-23T08:13:34;18.38;;;9.45;;
2658;SDS011;1339;53.304;10.406;2022-11-23T08:16:01;16.38;;;11.13;;
2658;SDS011;1339;53.304;10.406;2022-11-23T08:18:28;13.68;;;12.25;;
2658;SDS011;1339;53.304;10.406;2022-11-23T08:20:57;11.98;;;10.60;;
2658;SDS011;1339;53.304;10.406;2022-11-23T08:23:24;15.48;;;12.20;;
2658;SDS011;1339;53.304;10.406;2022-11-23T08:25:52;16.23;;;11.07;;
2658;SDS011;1339;53.304;10.406;2022-11-23T08:28:20;14.52;;;11.43;;
2658;SDS011;1339;53.304;10.406;2022-11-23T08:30:47;12.43;;;10.98;;
2658;SDS011;1339;53.304;10.406;2022-11-23T08:33:15;21.27;;;10.48;;
2658;SDS011;1339;53.304;10.406;2022-11-23T08:35:42;12.40;;;9.77;;
2658;SDS011;1339;53.304;10.406;2022-11-23T08:38:09;13.07;;;10.68;;
2658;SDS011;1339;53.304;10.406;2022-11-23T08:40:37;16.17;;;9.63;;
2658;SDS011;1339;53.304;10.406;2022-11-23T08:43:04;13.75;;;8.95;;
2658;SDS011;1339;53.304;10.406;2022-11-23T08:45:32;10.50;;;8.95;;
2658;SDS011;1339;53.304;10.406;2022-11-23T08:48:00;12.20;;;9.60;;
2658;SDS011;1339;53.304;10.406;2022-11-23T08:50:27;10.70;;;9.15;;
2658;SDS011;1339;53.304;10.406;2022-11-23T08:52:54;13.05;;;8.02;;
2658;SDS011;1339;53.304;10.406;2022-11-23T08:55:22;17.27;;;9.85;;
2658;SDS011;1339;53.304;10.406;2022-11-23T08:57:49;11.48;;;9.63;;
2658;SDS011;1339;53.304;10.406;2022-11-23T09:00:16;11.85;;;9.80;;
2658;SDS011;1339;53.304;10.406;2022-11-23T09:02:45;11.48;;;10.18;;
2658;SDS011;1339;53.304;10.406;2022-11-23T09:05:13;14.15;;;9.05;;
2658;SDS011;1339;53.304;10.406;2022-11-23T09:07:40;10.15;;;9.15;;
2658;SDS011;1339;53.304;10.406;2022-11-23T09:10:07;11.05;;;8.77;;
2658;SDS011;1339;53.304;10.406;2022-11-23T09:12:34;11.75;;;8.82;;
2658;SDS011;1339;53.304;10.406;2022-11-23T09:15:01;10.63;;;8.35;;
2658;SDS011;1339;53.304;10.406;2022-11-23T09:17:29;15.27;;;9.30;;
2658;SDS011;1339;53.304;10.406;2022-11-23T09:19:58;12.65;;;10.18;;
2658;SDS011;1339;53.304;10.406;2022-11-23T09:22:25;14.30;;;8.23;;
2658;SDS011;1339;53.304;10.406;2022-11-23T09:24:52;9.35;;;8.32;;
2658;SDS011;1339;53.304;10.406;2022-11-23T09:27:19;12.15;;;8.38;;
2658;SDS011;1339;53.304;10.406;2022-11-23T09:29:46;11.38;;;8.15;;
2658;SDS011;1339;53.304;10.406;2022-11-23T09:32:14;13.15;;;8.73;;
2658;SDS011;1339;53.304;10.406;2022-11-23T09:34:41;9.75;;;8.80;;
2658;SDS011;1339;53.304;10.406;2022-11-23T09:37:10;11.02;;;8.43;;
2658;SDS011;1339;53.304;10.406;2022-11-23T09:39:37;13.43;;;8.18;;
2658;SDS011;1339;53.304;10.406;2022-11-23T09:42:09;12.60;;;9.43;;
2658;SDS011;1339;53.304;10.406;2022-11-23T09:44:43;9.50;;;7.80;;
2658;SDS011;1339;53.304;10.406;2022-11-23T09:47:18;10.68;;;8.70;;
2658;SDS011;1339;53.304;10.406;2022-11-23T09:49:51;8.90;;;7.75;;
2658;SDS011;1339;53.304;10.406;2022-11-23T09:52:23;9.75;;;8.15;;
2658;SDS011;1339;53.304;10.406;2022-11-23T09:54:51;10.45;;;8.32;;
2658;SDS011;1339;53.304;10.406;2022-11-23T09:57:20;8.43;;;7.55;;
2658;SDS011;1339;53.304;10.406;2022-11-23T09:59:48;12.00;;;7.47;;
2658;SDS011;1339;53.304;10.406;2022-11-23T10:02:18;11.32;;;8.10;;
2658;SDS011;1339;53.304;10.406;2022-11-23T10:04:45;13.20;;;7.63;;
2658;SDS011;1339;53.304;10.406;2022-11-23T10:07:17;7.38;;;6.63;;
2658;SDS011;1339;53.304;10.406;2022-11-23T10:09:51;7.28;;;6.57;;
2658;SDS011;1339;53.304;10.406;2022-11-23T10:12:25;9.85;;;5.95;;
2658;SDS011;1339;53.304;10.406;2022-11-23T10:14:57;9.45;;;6.50;;
2658;SDS011;1339;53.304;10.406;2022-11-23T10:17:29;8.23;;;6.70;;
2658;SDS011;1339;53.304;10.406;2022-11-23T10:20:14;12.25;;;6.97;;
2658;SDS011;1339;53.304;10.406;2022-11-23T10:22:44;9.70;;;6.82;;
2658;SDS011;1339;53.304;10.406;2022-11-23T10:25:16;12.38;;;7.00;;
2658;SDS011;1339;53.304;10.406;2022-11-23T10:27:44;7.72;;;6.90;;
2658;SDS011;1339;53.304;10.406;2022-11-23T10:30:12;10.70;;;5.90;;
2658;SDS011;1339;53.304;10.406;2022-11-23T10:32:41;7.57;;;6.65;;
2658;SDS011;1339;53.304;10.406;2022-11-23T10:35:11;8.82;;;5.90;;
2658;SDS011;1339;53.304;10.406;2022-11-23T10:37:39;6.90;;;5.75;;
2658;SDS011;1339;53.304;10.406;2022-11-23T10:40:09;8.10;;;6.25;;
2658;SDS011;1339;53.304;10.406;2022-11-23T10:42:40;11.60;;;6.05;;
2658;SDS011;1339;53.304;10.406;2022-11-23T10:45:16;6.38;;;5.22;;
2658;SDS011;1339;53.304;10.406;2022-11-23T10:47:48;9.15;;;5.20;;
2658;SDS011;1339;53.304;10.406;2022-11-23T10:50:18;9.25;;;5.97;;
2658;SDS011;1339;53.304;10.406;2022-11-23T10:52:48;8.77;;;5.93;;
2658;SDS011;1339;53.304;10.406;2022-11-23T10:55:16;10.52;;;7.70;;
2658;SDS011;1339;53.304;10.406;2022-11-23T10:57:45;8.38;;;7.57;;
2658;SDS011;1339;53.304;10.406;2022-11-23T11:00:13;7.13;;;6.43;;
2658;SDS011;1339;53.304;10.406;2022-11-23T11:02:41;10.30;;;6.90;;
2658;SDS011;1339;53.304;10.406;2022-11-23T11:05:13;8.20;;;6.32;;
2658;SDS011;1339;53.304;10.406;2022-11-23T11:07:41;8.95;;;4.95;;
2658;SDS011;1339;53.304;10.406;2022-11-23T11:10:28;8.52;;;6.32;;
2658;SDS011;1339;53.304;10.406;2022-11-23T11:12:57;8.18;;;5.43;;
2658;SDS011;1339;53.304;10.406;2022-11-23T11:15:24;7.05;;;5.15;;
2658;SDS011;1339;53.304;10.406;2022-11-23T11:17:53;7.88;;;5.50;;
2658;SDS011;1339;53.304;10.406;2022-11-23T11:20:28;11.18;;;5.68;;
2658;SDS011;1339;53.304;10.406;2022-11-23T11:22:56;7.07;;;4.72;;
2658;SDS011;1339;53.304;10.406;2022-11-23T11:25:27;11.52;;;5.90;;
2658;SDS011;1339;53.304;10.406;2022-11-23T11:27:55;8.15;;;4.95;;
2658;SDS011;1339;53.304;10.406;2022-11-23T11:30:24;5.15;;;4.63;;
2658;SDS011;1339;53.304;10.406;2022-11-23T11:32:54;5.95;;;5.10;;
2658;SDS011;1339;53.304;10.406;2022-11-23T11:35:24;7.20;;;4.93;;
2658;SDS011;1339;53.304;10.406;2022-11-23T11:37:53;8.10;;;4.45;;
2658;SDS011;1339;53.304;10.406;2022-11-23T11:40:22;5.95;;;4.45;;
2658;SDS011;1339;53.304;10.406;2022-11-23T11:42:52;6.13;;;5.50;;
2658;SDS011;1339;53.304;10.406;2022-11-23T11:45:22;6.60;;;4.93;;
2658;SDS011;1339;53.304;10.406;2022-11-23T11:47:52;7.70;;;5.00;;
2658;SDS011;1339;53.304;10.406;2022-11-23T11:50:21;6.38;;;5.88;;
2658;SDS011;1339;53.304;10.406;2022-11-23T11:52:49;7.95;;;5.35;;
2658;SDS011;1339;53.304;10.406;2022-11-23T11:55:18;6.63;;;5.10;;
2658;SDS011;1339;53.304;10.406;2022-11-23T11:57:47;5.82;;;4.90;;
2658;SDS011;1339;53.304;10.406;2022-11-23T12:00:16;7.70;;;4.35;;
2658;SDS011;1339;53.304;10.406;2022-11-23T12:02:48;7.55;;;5.25;;
2658;SDS011;1339;53.304;10.406;2022-11-23T12:05:19;7.07;;;4.55;;
2658;SDS011;1339;53.304;10.406;2022-11-23T12:07:48;13.48;;;6.32;;
2658;SDS011;1339;53.304;10.406;2022-11-23T12:10:20;5.82;;;4.55;;
2658;SDS011;1339;53.304;10.406;2022-11-23T12:12:50;6.15;;;5.55;;
2658;SDS011;1339;53.304;10.406;2022-11-23T12:15:17;6.90;;;3.90;;
2658;SDS011;1339;53.304;10.406;2022-11-23T12:17:54;7.18;;;5.25;;
2658;SDS011;1339;53.304;10.406;2022-11-23T12:20:25;9.35;;;5.85;;
2658;SDS011;1339;53.304;10.406;2022-11-23T12:23:03;7.40;;;3.72;;
2658;SDS011;1339;53.304;10.406;2022-11-23T12:25:33;5.80;;;3.97;;
2658;SDS011;1339;53.304;10.406;2022-11-23T12:28:05;5.53;;;4.15;;
2658;SDS011;1339;53.304;10.406;2022-11-23T12:30:34;4.63;;;3.55;;
2658;SDS011;1339;53.304;10.406;2022-11-23T12:33:07;4.30;;;3.78;;
2658;SDS011;1339;53.304;10.406;2022-11-23T12:35:46;5.78;;;3.85;;
2658;SDS011;1339;53.304;10.406;2022-11-23T12:38:18;6.93;;;4.70;;
2658;SDS011;1339;53.304;10.406;2022-11-23T12:40:52;6.97;;;3.90;;
2658;SDS011;1339;53.304;10.406;2022-11-23T12:43:23;4.90;;;4.50;;
2658;SDS011;1339;53.304;10.406;2022-11-23T12:45:55;6.40;;;4.30;;
2658;SDS011;1339;53.304;10.406;2022-11-23T12:48:30;4.28;;;3.50;;
2658;SDS011;1339;53.304;10.406;2022-11-23T12:51:02;10.75;;;4.95;;
2658;SDS011;1339;53.304;10.406;2022-11-23T12:53:35;6.13;;;4.60;;
2658;SDS011;1339;53.304;10.406;2022-11-23T12:56:09;7.40;;;5.05;;
2658;SDS011;1339;53.304;10.406;2022-11-23T12:58:39;5.95;;;4.63;;
2658;SDS011;1339;53.304;10.406;2022-11-23T13:01:09;6.95;;;5.45;;
2658;SDS011;1339;53.304;10.406;2022-11-23T13:03:45;7.30;;;4.68;;
2658;SDS011;1339;53.304;10.406;2022-11-23T13:09:07;7.22;;;4.80;;
2658;SDS011;1339;53.304;10.406;2022-11-23T13:11:43;7.22;;;4.85;;
2658;SDS011;1339;53.304;10.406;2022-11-23T13:14:19;5.90;;;4.95;;
2658;SDS011;1339;53.304;10.406;2022-11-23T13:19:41;5.90;;;5.32;;
2658;SDS011;1339;53.304;10.406;2022-11-23T13:22:16;8.68;;;6.13;;
2658;SDS011;1339;53.304;10.406;2022-11-23T13:24:59;7.68;;;5.30;;
2658;SDS011;1339;53.304;10.406;2022-11-23T13:27:39;8.45;;;4.32;;
2658;SDS011;1339;53.304;10.406;2022-11-23T13:30:08;6.32;;;4.85;;
2658;SDS011;1339;53.304;10.406;2022-11-23T13:32:41;6.28;;;5.07;;
2658;SDS011;1339;53.304;10.406;2022-11-23T13:38:16;6.38;;;4.78;;
2658;SDS011;1339;53.304;10.406;2022-11-23T13:40:45;8.13;;;5.95;;
2658;SDS011;1339;53.304;10.406;2022-11-23T13:43:14;5.78;;;4.70;;
2658;SDS011;1339;53.304;10.406;2022-11-23T13:45:41;7.88;;;5.22;;
2658;SDS011;1339;53.304;10.406;2022-11-23T13:48:13;7.38;;;4.43;;
2658;SDS011;1339;53.304;10.406;2022-11-23T13:50:54;7.85;;;4.35;;
2658;SDS011;1339;53.304;10.406;2022-11-23T13:53:22;5.47;;;4.40;;
2658;SDS011;1339;53.304;10.406;2022-11-23T13:55:52;10.43;;;4.63;;
2658;SDS011;1339;53.304;10.406;2022-11-23T13:58:33;5.75;;;3.65;;
2658;SDS011;1339;53.304;10.406;2022-11-23T14:01:01;5.55;;;3.35;;
2658;SDS011;1339;53.304;10.406;2022-11-23T14:03:44;6.45;;;3.78;;
2658;SDS011;1339;53.304;10.406;2022-11-23T14:06:13;5.18;;;3.95;;
2658;SDS011;1339;53.304;10.406;2022-11-23T14:08:42;6.20;;;3.53;;
2658;SDS011;1339;53.304;10.406;2022-11-23T14:11:12;10.00;;;4.38;;
2658;SDS011;1339;53.304;10.406;2022-11-23T14:13:41;6.63;;;4.28;;
2658;SDS011;1339;53.304;10.406;2022-11-23T14:16:14;5.50;;;4.05;;
2658;SDS011;1339;53.304;10.406;2022-11-23T14:18:48;6.28;;;5.63;;
2658;SDS011;1339;53.304;10.406;2022-11-23T14:21:17;4.32;;;3.88;;
2658;SDS011;1339;53.304;10.406;2022-11-23T14:23:53;4.93;;;3.45;;
2658;SDS011;1339;53.304;10.406;2022-11-23T14:26:32;4.50;;;4.00;;
2658;SDS011;1339;53.304;10.406;2022-11-23T14:29:18;4.90;;;4.25;;
2658;SDS011;1339;53.304;10.406;2022-11-23T14:31:50;8.18;;;5.40;;
2658;SDS011;1339;53.304;10.406;2022-11-23T14:34:22;11.02;;;4.85;;
2658;SDS011;1339;53.304;10.406;2022-11-23T14:36:52;7.60;;;5.28;;
2658;SDS011;1339;53.304;10.406;2022-11-23T14:39:33;5.63;;;5.00;;
2658;SDS011;1339;53.304;10.406;2022-11-23T14:42:09;5.72;;;4.22;;
2658;SDS011;1339;53.304;10.406;2022-11-23T14:44:37;5.57;;;5.05;;
2658;SDS011;1339;53.304;10.406;2022-11-23T14:47:05;5.80;;;4.13;;
2658;SDS011;1339;53.304;10.406;2022-11-23T14:49:32;3.85;;;3.17;;
2658;SDS011;1339;53.304;10.406;2022-11-23T14:52:00;7.18;;;4.25;;
2658;SDS011;1339;53.304;10.406;2022-11-23T14:54:27;6.40;;;4.25;;
2658;SDS011;1339;53.304;10.406;2022-11-23T14:56:55;5.05;;;4.60;;
2658;SDS011;1339;53.304;10.406;2022-11-23T14:59:25;7.13;;;4.63;;
2658;SDS011;1339;53.304;10.406;2022-11-23T15:01:54;6.00;;;4.15;;